Time;durP1;ratioP1;P1;durP2;ratioP2;P2;SDS_P1;SDS_P2;PMS_P1;PMS_P2;Temp;Humidity;BMP_temperature;BMP_pressure;BME280_temperature;BME280_humidity;BME280_pressure;Samples;Min_cycle;Max_cycle;Signal;HPM_P1;HPM_P2
2022/10/07 00:02:15;;;;;;;3.03;1.33;;;11.50;99.90;;;;;;5060074;28;20272;-72
2022/10/07 00:04:44;;;;;;;2.93;1.40;;;11.50;99.90;;;;;;5034127;28;20250;-71
2022/10/07 00:07:11;;;;;;;3.03;1.53;;;11.40;99.90;;;;;;5038435;28;20181;-71
2022/10/07 00:09:40;;;;;;;3.03;1.40;;;11.40;99.90;;;;;;5051152;28;20186;-72
2022/10/07 00:12:05;;;;;;;3.17;1.25;;;11.40;99.90;;;;;;5050968;28;20192;-71
2022/10/07 00:14:31;;;;;;;2.57;1.30;;;11.30;99.90;;;;;;5041530;28;20193;-71
2022/10/07 00:16:57;;;;;;;2.40;1.30;;;11.40;99.90;;;;;;5046391;28;20216;-71
2022/10/07 00:19:22;;;;;;;3.67;1.30;;;11.30;99.90;;;;;;5038673;28;20213;-71
2022/10/07 00:21:48;;;;;;;1.53;1.13;;;11.30;99.90;;;;;;5045723;28;20177;-71
2022/10/07 00:24:16;;;;;;;2.87;1.30;;;11.20;99.90;;;;;;5043408;28;20181;-70
2022/10/07 00:26:44;;;;;;;3.33;1.40;;;11.20;99.90;;;;;;5045807;28;20227;-71
2022/10/07 00:29:09;;;;;;;2.10;1.20;;;11.20;99.90;;;;;;5051926;28;20389;-72
2022/10/07 00:31:35;;;;;;;2.53;1.27;;;11.20;99.90;;;;;;5053067;28;20181;-70
2022/10/07 00:34:02;;;;;;;2.20;1.20;;;11.20;99.90;;;;;;5051124;28;20225;-71
2022/10/07 00:36:35;;;;;;;4.77;1.37;;;11.10;99.90;;;;;;5034434;28;20184;-70
2022/10/07 00:39:05;;;;;;;2.40;1.10;;;11.10;99.90;;;;;;5051880;28;20178;-71
2022/10/07 00:41:40;;;;;;;3.03;1.20;;;11.10;99.90;;;;;;5040015;28;20202;-71
2022/10/07 00:44:34;;;;;;;3.87;1.20;;;11.10;99.90;;;;;;5052247;28;20169;-69
2022/10/07 00:47:21;;;;;;;2.67;1.20;;;11.00;99.90;;;;;;5041878;28;20181;-70
2022/10/07 00:50:07;;;;;;;2.33;1.43;;;11.00;99.90;;;;;;5066762;28;20185;-72
2022/10/07 00:52:38;;;;;;;2.47;1.40;;;11.00;99.90;;;;;;5045365;28;20173;-71
2022/10/07 00:55:09;;;;;;;4.60;1.17;;;11.00;99.90;;;;;;5056616;28;20201;-72
2022/10/07 00:57:38;;;;;;;3.00;1.30;;;11.00;99.90;;;;;;5052959;28;20205;-72
2022/10/07 01:00:05;;;;;;;3.53;1.10;;;10.90;99.90;;;;;;5047943;28;20197;-71
2022/10/07 01:02:35;;;;;;;3.03;1.20;;;10.90;99.90;;;;;;5054122;28;20203;-73
2022/10/07 01:05:03;;;;;;;3.17;1.00;;;10.90;99.90;;;;;;5046446;28;20208;-72
2022/10/07 01:07:29;;;;;;;1.83;1.00;;;10.90;99.90;;;;;;5056897;28;20177;-72
2022/10/07 01:09:59;;;;;;;1.83;1.20;;;10.90;99.90;;;;;;5055049;28;20205;-72
2022/10/07 01:12:56;;;;;;;1.73;0.90;;;10.80;99.90;;;;;;5053815;28;20209;-72
2022/10/07 01:16:03;;;;;;;2.10;1.03;;;10.80;99.90;;;;;;5054113;28;20209;-72
2022/10/07 01:19:10;;;;;;;1.77;1.00;;;10.80;99.90;;;;;;5042232;28;20390;-72
2022/10/07 01:21:39;;;;;;;2.17;0.93;;;10.80;99.90;;;;;;5050896;28;20206;-72
2022/10/07 01:24:32;;;;;;;2.90;1.30;;;10.80;99.90;;;;;;5043199;28;20174;-72
2022/10/07 01:27:05;;;;;;;3.17;1.10;;;10.80;99.90;;;;;;5047619;28;20240;-73
2022/10/07 01:29:39;;;;;;;1.73;1.00;;;10.80;99.90;;;;;;5056388;28;20201;-73
2022/10/07 01:32:09;;;;;;;2.33;1.10;;;10.70;99.90;;;;;;5041610;28;20272;-72
2022/10/07 01:34:35;;;;;;;3.30;1.10;;;10.70;99.90;;;;;;5039692;28;20269;-72
2022/10/07 01:37:07;;;;;;;2.63;1.17;;;10.70;99.90;;;;;;5056040;28;20339;-72
2022/10/07 01:39:41;;;;;;;2.07;1.10;;;10.70;99.90;;;;;;5051475;28;20181;-71
2022/10/07 01:42:10;;;;;;;2.50;1.10;;;10.70;99.90;;;;;;5048508;28;20194;-72
2022/10/07 01:44:38;;;;;;;2.17;0.90;;;10.70;99.90;;;;;;5053112;28;20170;-73
2022/10/07 01:47:05;;;;;;;3.97;1.40;;;10.70;99.90;;;;;;5036432;28;20170;-72
2022/10/07 01:49:33;;;;;;;2.60;1.13;;;10.60;99.90;;;;;;5047456;28;20197;-72
2022/10/07 01:52:18;;;;;;;2.30;1.20;;;10.60;99.90;;;;;;5046821;28;20236;-72
2022/10/07 01:55:09;;;;;;;1.87;1.20;;;10.60;99.90;;;;;;5055917;28;20165;-70
2022/10/07 01:58:02;;;;;;;2.90;1.20;;;10.60;99.90;;;;;;5052003;28;20272;-71
2022/10/07 02:00:29;;;;;;;7.47;1.33;;;10.60;99.90;;;;;;5050797;28;20177;-72
2022/10/07 02:03:16;;;;;;;2.23;1.00;;;10.60;99.90;;;;;;5037184;28;20190;-72
2022/10/07 02:06:05;;;;;;;2.10;0.90;;;10.60;99.90;;;;;;5039373;28;20261;-72
2022/10/07 02:08:40;;;;;;;1.90;0.80;;;10.60;99.90;;;;;;5051421;28;20215;-72
2022/10/07 02:11:11;;;;;;;2.83;1.10;;;10.50;99.90;;;;;;5043853;28;20231;-72
2022/10/07 02:13:57;;;;;;;3.13;1.03;;;10.50;99.90;;;;;;5036373;28;20247;-70
2022/10/07 02:17:00;;;;;;;2.33;1.00;;;10.50;99.90;;;;;;5057714;28;20204;-73
2022/10/07 02:19:33;;;;;;;2.63;0.90;;;10.50;99.90;;;;;;5048913;28;20216;-72
2022/10/07 02:22:04;;;;;;;1.97;1.00;;;10.40;99.90;;;;;;5060177;28;20247;-70
2022/10/07 02:24:34;;;;;;;4.33;1.10;;;10.40;99.90;;;;;;5044786;28;20284;-72
2022/10/07 02:27:07;;;;;;;4.13;0.97;;;10.40;99.90;;;;;;5046676;28;20185;-71
2022/10/07 02:29:38;;;;;;;2.83;1.13;;;10.40;99.90;;;;;;5035635;28;20213;-71
2022/10/07 02:32:11;;;;;;;2.60;1.20;;;10.40;99.90;;;;;;5048785;28;20184;-73
2022/10/07 02:34:39;;;;;;;2.03;0.90;;;10.30;99.90;;;;;;5052591;28;20783;-71
2022/10/07 02:37:14;;;;;;;2.10;0.97;;;10.40;99.90;;;;;;5039844;28;20202;-72
2022/10/07 02:39:42;;;;;;;2.10;1.17;;;10.30;99.90;;;;;;5050862;28;20174;-72
2022/10/07 02:42:29;;;;;;;2.17;1.10;;;10.30;99.90;;;;;;5040760;28;20174;-71
2022/10/07 02:45:29;;;;;;;1.83;1.10;;;10.30;99.90;;;;;;5035500;28;20242;-72
2022/10/07 02:48:27;;;;;;;2.97;0.90;;;10.20;99.90;;;;;;5027809;28;20240;-72
2022/10/07 02:50:59;;;;;;;2.57;1.23;;;10.10;99.90;;;;;;5044680;28;20378;-71
2022/10/07 02:53:31;;;;;;;3.47;1.20;;;10.20;99.90;;;;;;5048123;28;20200;-71
2022/10/07 02:56:04;;;;;;;3.87;1.27;;;10.10;99.90;;;;;;5054444;28;20208;-72
2022/10/07 02:58:30;;;;;;;1.70;0.97;;;10.10;99.90;;;;;;5049534;28;20204;-71
2022/10/07 03:01:00;;;;;;;2.03;1.07;;;10.10;99.90;;;;;;5053817;28;20166;-72
2022/10/07 03:03:26;;;;;;;2.97;1.20;;;10.10;99.90;;;;;;5054513;28;20197;-72
2022/10/07 03:05:55;;;;;;;1.73;1.10;;;10.10;99.90;;;;;;5045171;28;20181;-71
2022/10/07 03:08:26;;;;;;;2.80;1.20;;;10.10;99.90;;;;;;5049934;28;20211;-70
2022/10/07 03:10:56;;;;;;;3.20;1.50;;;10.10;99.90;;;;;;5034307;28;20206;-72
2022/10/07 03:13:23;;;;;;;4.47;3.30;;;10.10;99.90;;;;;;5047167;28;20182;-71
2022/10/07 03:15:49;;;;;;;4.53;2.90;;;10.10;99.90;;;;;;5049824;28;20193;-71
2022/10/07 03:18:28;;;;;;;3.90;1.80;;;10.10;99.90;;;;;;5041882;28;20200;-71
2022/10/07 03:20:54;;;;;;;3.60;1.90;;;10.10;99.90;;;;;;5042221;28;20265;-71
2022/10/07 03:23:27;;;;;;;3.37;1.40;;;10.10;99.90;;;;;;5052343;28;20197;-72
2022/10/07 03:25:57;;;;;;;3.40;1.40;;;10.10;99.90;;;;;;5034792;28;20205;-73
2022/10/07 03:28:28;;;;;;;1.83;1.17;;;10.10;99.90;;;;;;5034778;28;20190;-73
2022/10/07 03:31:02;;;;;;;2.90;1.43;;;10.10;99.90;;;;;;5035465;28;20202;-72
2022/10/07 03:33:36;;;;;;;2.40;1.20;;;10.00;99.90;;;;;;5035973;28;20174;-71
2022/10/07 03:36:04;;;;;;;2.80;1.10;;;10.00;99.90;;;;;;5045927;28;20240;-72
2022/10/07 03:38:32;;;;;;;3.10;1.20;;;10.00;99.90;;;;;;5046897;28;20206;-72
2022/10/07 03:41:00;;;;;;;4.33;2.27;;;10.00;99.90;;;;;;5045626;28;20174;-71
2022/10/07 03:43:29;;;;;;;4.37;2.50;;;10.00;99.90;;;;;;5048599;28;20240;-72
2022/10/07 03:45:55;;;;;;;3.70;1.80;;;10.00;99.90;;;;;;5047533;28;20276;-71
2022/10/07 03:48:21;;;;;;;3.80;1.63;;;10.00;99.90;;;;;;5047279;28;20197;-71
2022/10/07 03:50:51;;;;;;;5.03;2.77;;;10.10;99.90;;;;;;5049351;28;20173;-72
2022/10/07 03:53:21;;;;;;;6.20;3.53;;;10.00;99.90;;;;;;5046089;28;20264;-71
2022/10/07 03:55:47;;;;;;;9.43;5.80;;;10.00;99.90;;;;;;5034687;28;20181;-72
2022/10/07 03:58:13;;;;;;;4.93;2.67;;;10.00;99.90;;;;;;5048940;28;20284;-72
2022/10/07 04:00:41;;;;;;;3.63;2.10;;;10.00;99.90;;;;;;5034234;28;20178;-72
2022/10/07 04:03:11;;;;;;;3.97;1.73;;;10.10;99.90;;;;;;5038463;28;20201;-72
2022/10/07 04:05:37;;;;;;;3.10;1.80;;;10.00;99.90;;;;;;5053113;28;20180;-72
2022/10/07 04:08:03;;;;;;;4.03;1.63;;;10.00;99.90;;;;;;5051353;28;20180;-72
2022/10/07 04:10:30;;;;;;;4.63;2.37;;;10.00;99.90;;;;;;5054282;28;20201;-72
2022/10/07 04:12:55;;;;;;;5.27;3.27;;;10.00;99.90;;;;;;5051896;28;20186;-72
2022/10/07 04:15:21;;;;;;;3.40;2.10;;;10.00;99.90;;;;;;5064038;28;20202;-71
2022/10/07 04:17:53;;;;;;;3.33;1.60;;;10.00;99.90;;;;;;5042701;28;20201;-72
2022/10/07 04:20:18;;;;;;;3.30;1.50;;;9.90;99.90;;;;;;5050163;28;20178;-72
2022/10/07 04:22:44;;;;;;;3.47;1.50;;;9.90;99.90;;;;;;5042754;28;20193;-72
2022/10/07 04:27:58;;;;;;;2.87;1.37;;;9.90;99.90;;;;;;5046115;28;20216;-72
2022/10/07 04:30:27;;;;;;;2.00;1.20;;;9.90;99.90;;;;;;5040101;28;20210;-72
2022/10/07 04:32:53;;;;;;;7.40;4.43;;;9.90;99.90;;;;;;5057685;28;20173;-71
2022/10/07 04:35:20;;;;;;;8.20;5.07;;;9.90;99.90;;;;;;5039419;28;20232;-72
2022/10/07 04:37:50;;;;;;;5.10;3.10;;;9.90;99.90;;;;;;5053542;28;20228;-71
2022/10/07 04:40:22;;;;;;;5.47;2.70;;;9.90;99.90;;;;;;5051412;28;20178;-72
2022/10/07 04:45:37;;;;;;;5.07;2.23;;;9.80;99.90;;;;;;5044345;28;20189;-72
2022/10/07 04:48:06;;;;;;;4.17;2.00;;;9.90;99.90;;;;;;5057378;28;20189;-71
2022/10/07 04:50:37;;;;;;;3.03;1.80;;;9.80;99.90;;;;;;5053641;28;20181;-72
2022/10/07 04:53:09;;;;;;;2.90;1.60;;;9.80;99.90;;;;;;5051745;28;20208;-73
2022/10/07 04:55:39;;;;;;;2.90;1.67;;;9.80;99.90;;;;;;5053892;28;20205;-71
2022/10/07 04:58:05;;;;;;;2.37;1.30;;;9.90;99.90;;;;;;5057381;28;20193;-72
2022/10/07 05:00:31;;;;;;;3.83;1.60;;;9.90;99.90;;;;;;5056107;28;20222;-73
2022/10/07 05:02:57;;;;;;;3.20;1.40;;;9.80;99.90;;;;;;5054999;28;20174;-72
2022/10/07 05:05:26;;;;;;;3.73;1.40;;;9.80;99.90;;;;;;5055152;28;20185;-79
2022/10/07 05:07:54;;;;;;;2.33;1.37;;;9.80;99.90;;;;;;5044618;28;20169;-78
2022/10/07 05:10:23;;;;;;;3.90;1.70;;;9.80;99.90;;;;;;5039428;28;20181;-78
2022/10/07 05:12:49;;;;;;;2.70;1.33;;;9.80;99.90;;;;;;5049384;28;20173;-79
2022/10/07 05:15:15;;;;;;;4.17;1.70;;;9.70;99.90;;;;;;5057340;28;20325;-78
2022/10/07 05:17:41;;;;;;;3.20;1.57;;;9.70;99.90;;;;;;5042762;28;20292;-78
2022/10/07 05:20:08;;;;;;;3.83;1.63;;;9.70;99.90;;;;;;5049204;28;20185;-79
2022/10/07 05:22:34;;;;;;;3.83;1.53;;;9.70;99.90;;;;;;5049111;28;20177;-78
2022/10/07 05:25:00;;;;;;;2.63;1.43;;;9.70;99.90;;;;;;5050785;28;20170;-72
2022/10/07 05:27:26;;;;;;;3.33;1.77;;;9.70;99.90;;;;;;5056177;28;20216;-72
2022/10/07 05:29:52;;;;;;;3.20;1.77;;;9.70;99.90;;;;;;5048353;28;20201;-72
2022/10/07 05:32:17;;;;;;;2.53;1.40;;;9.70;99.90;;;;;;5053439;28;20177;-72
2022/10/07 05:34:46;;;;;;;3.37;1.90;;;9.60;99.90;;;;;;5048947;28;20194;-72
2022/10/07 05:37:12;;;;;;;4.83;1.83;;;9.60;99.90;;;;;;5042538;28;20211;-72
2022/10/07 05:39:40;;;;;;;2.70;1.57;;;9.60;99.90;;;;;;5040168;28;20177;-72
2022/10/07 05:42:12;;;;;;;4.77;2.10;;;9.60;99.90;;;;;;5055765;28;20204;-72
2022/10/07 05:44:38;;;;;;;2.83;1.87;;;9.60;99.90;;;;;;5042924;28;20184;-72
2022/10/07 05:47:06;;;;;;;7.53;2.30;;;9.50;99.90;;;;;;5035977;28;20208;-71
2022/10/07 05:49:32;;;;;;;4.03;2.20;;;9.40;99.90;;;;;;5036252;28;20178;-72
2022/10/07 05:51:59;;;;;;;5.07;2.30;;;9.50;99.90;;;;;;5041559;28;20180;-72
2022/10/07 05:54:27;;;;;;;5.27;2.57;;;9.50;99.90;;;;;;5044832;28;20170;-72
2022/10/07 05:56:55;;;;;;;4.13;2.70;;;9.50;99.90;;;;;;5035745;28;20181;-72
2022/10/07 05:59:23;;;;;;;6.77;2.87;;;9.50;99.90;;;;;;5043407;28;20347;-72
2022/10/07 06:01:55;;;;;;;6.53;2.90;;;9.40;99.90;;;;;;5036444;28;20193;-71
2022/10/07 06:04:20;;;;;;;5.53;2.83;;;9.40;99.90;;;;;;5035876;28;20176;-71
2022/10/07 06:06:48;;;;;;;5.47;3.00;;;9.40;99.90;;;;;;5042901;28;20268;-72
2022/10/07 06:14:42;;;;;;;5.27;3.10;;;9.50;99.90;;;;;;5043357;28;20256;-71
2022/10/07 06:17:10;;;;;;;7.47;3.10;;;9.40;99.90;;;;;;5051964;28;20214;-70
2022/10/07 06:19:36;;;;;;;6.63;3.00;;;9.40;99.90;;;;;;5066545;28;20172;-71
2022/10/07 06:22:04;;;;;;;5.37;3.30;;;9.40;99.90;;;;;;5051969;28;20177;-70
2022/10/07 06:24:32;;;;;;;7.93;3.33;;;9.50;99.90;;;;;;5035337;28;20198;-71
2022/10/07 06:27:00;;;;;;;4.77;2.97;;;9.40;99.90;;;;;;5035662;28;20170;-71
2022/10/07 06:29:27;;;;;;;4.47;2.60;;;9.40;99.90;;;;;;5035504;28;20204;-73
2022/10/07 06:31:53;;;;;;;4.40;2.73;;;9.50;99.90;;;;;;5035546;28;20200;-72
2022/10/07 06:34:20;;;;;;;5.30;2.93;;;9.50;99.90;;;;;;5041082;28;20178;-71
2022/10/07 06:36:48;;;;;;;5.03;2.73;;;9.50;99.90;;;;;;5055173;28;20192;-71
2022/10/07 06:39:17;;;;;;;5.30;2.57;;;9.50;99.90;;;;;;5043070;28;20196;-71
2022/10/07 06:41:43;;;;;;;4.13;2.13;;;9.50;99.90;;;;;;5055517;28;20193;-71
2022/10/07 06:44:11;;;;;;;4.50;2.50;;;9.60;99.90;;;;;;5069563;28;20189;-71
2022/10/07 06:46:36;;;;;;;5.33;2.30;;;9.60;99.90;;;;;;5049583;28;20193;-72
2022/10/07 06:49:04;;;;;;;5.60;2.30;;;9.60;99.90;;;;;;5060736;28;20165;-70
2022/10/07 06:51:32;;;;;;;3.00;2.20;;;9.60;99.90;;;;;;5045472;28;20263;-71
2022/10/07 06:54:00;;;;;;;4.53;2.47;;;9.70;99.90;;;;;;5045140;28;20304;-71
2022/10/07 06:56:26;;;;;;;4.53;2.70;;;9.70;99.90;;;;;;5035710;28;20192;-71
2022/10/07 06:58:54;;;;;;;4.40;2.50;;;9.70;99.90;;;;;;5043028;28;20280;-72
2022/10/07 07:01:19;;;;;;;5.93;2.67;;;9.70;99.90;;;;;;5041164;28;20208;-71
2022/10/07 07:03:48;;;;;;;4.23;2.67;;;9.80;99.90;;;;;;5035090;28;20166;-72
2022/10/07 07:06:15;;;;;;;5.77;3.10;;;9.80;99.90;;;;;;5034562;28;20186;-71
2022/10/07 07:08:41;;;;;;;5.70;3.03;;;9.90;99.90;;;;;;5052080;28;20270;-72
2022/10/07 07:13:57;;;;;;;4.10;2.80;;;9.90;99.90;;;;;;5075088;28;20179;-71
2022/10/07 07:16:23;;;;;;;4.10;2.60;;;10.00;99.90;;;;;;5049043;28;20236;-72
2022/10/07 07:18:57;;;;;;;4.33;2.53;;;10.00;99.90;;;;;;5054165;28;20209;-71
2022/10/07 07:21:24;;;;;;;4.00;2.50;;;10.00;99.90;;;;;;5054175;28;20173;-71
2022/10/07 07:23:50;;;;;;;4.93;2.67;;;10.10;99.90;;;;;;5054614;28;20181;-71
2022/10/07 07:26:19;;;;;;;6.17;3.30;;;10.10;99.90;;;;;;5054468;28;20184;-71
2022/10/07 07:28:52;;;;;;;4.03;3.00;;;10.20;99.90;;;;;;5040883;28;20188;-72
2022/10/07 07:31:25;;;;;;;4.90;3.03;;;10.30;99.90;;;;;;5034978;28;20505;-71
2022/10/07 07:33:51;;;;;;;8.63;3.50;;;10.30;99.90;;;;;;5035012;28;20201;-72
2022/10/07 07:36:21;;;;;;;5.13;3.30;;;10.40;99.90;;;;;;5051436;28;20193;-72
2022/10/07 07:39:03;;;;;;;4.70;3.30;;;10.40;99.90;;;;;;5039797;28;20210;-71
2022/10/07 07:41:31;;;;;;;5.80;2.80;;;10.40;99.90;;;;;;5041838;28;20267;-71
2022/10/07 07:43:59;;;;;;;4.83;2.63;;;10.50;99.90;;;;;;5054843;28;20169;-64
2022/10/07 07:46:30;;;;;;;4.57;2.60;;;10.60;99.90;;;;;;5054762;28;20182;-72
2022/10/07 07:48:58;;;;;;;4.17;2.87;;;10.70;99.90;;;;;;5051551;28;20200;-73
2022/10/07 07:51:27;;;;;;;4.00;2.97;;;10.70;99.90;;;;;;5054194;28;20181;-72
2022/10/07 07:53:52;;;;;;;5.87;3.50;;;10.80;99.90;;;;;;5054146;28;20256;-70
2022/10/07 07:56:19;;;;;;;4.90;3.37;;;10.80;99.90;;;;;;5039817;28;20277;-71
2022/10/07 07:58:47;;;;;;;6.17;4.13;;;10.90;99.90;;;;;;5042016;28;20250;-71
2022/10/07 08:01:17;;;;;;;7.07;4.30;;;10.90;99.90;;;;;;5071467;28;20189;-72
2022/10/07 08:03:45;;;;;;;7.27;4.10;;;11.10;99.90;;;;;;5052403;28;20239;-71
2022/10/07 08:06:16;;;;;;;6.87;3.80;;;11.10;99.90;;;;;;5053071;28;20235;-71
2022/10/07 08:08:42;;;;;;;5.70;4.03;;;11.20;99.90;;;;;;5043509;28;20181;-72
2022/10/07 08:11:08;;;;;;;6.80;3.63;;;11.30;99.90;;;;;;5058174;28;20188;-71
2022/10/07 08:13:35;;;;;;;4.90;3.75;;;11.30;99.90;;;;;;5052378;28;20181;-72
2022/10/07 08:16:03;;;;;;;5.75;4.03;;;11.30;99.90;;;;;;5057879;28;20217;-72
2022/10/07 08:18:32;;;;;;;6.60;4.00;;;11.40;99.90;;;;;;5053023;28;20189;-73
2022/10/07 08:21:03;;;;;;;5.70;4.10;;;11.50;99.90;;;;;;5048784;28;20192;-72
2022/10/07 08:23:29;;;;;;;6.68;3.85;;;11.60;99.90;;;;;;5052567;28;20235;-71
2022/10/07 08:25:56;;;;;;;7.28;3.65;;;11.60;99.90;;;;;;5050007;28;20197;-73
2022/10/07 08:28:23;;;;;;;5.10;3.65;;;11.70;99.90;;;;;;5038386;28;20231;-73
2022/10/07 08:30:49;;;;;;;5.80;4.10;;;11.80;99.90;;;;;;5057804;28;20173;-72
2022/10/07 08:33:18;;;;;;;5.53;3.92;;;11.80;99.90;;;;;;5038407;28;20293;-72
2022/10/07 08:35:49;;;;;;;5.93;3.83;;;11.90;99.90;;;;;;5047030;28;20185;-65
2022/10/07 08:38:15;;;;;;;5.68;3.67;;;12.10;99.90;;;;;;5060591;28;20262;-72
2022/10/07 08:40:55;;;;;;;6.07;3.97;;;12.20;99.90;;;;;;5059249;28;20182;-73
2022/10/07 08:43:23;;;;;;;7.10;4.03;;;12.30;99.90;;;;;;5054439;28;20170;-73
2022/10/07 08:45:51;;;;;;;6.28;4.03;;;12.40;99.90;;;;;;5057361;28;20271;-72
2022/10/07 08:48:28;;;;;;;7.13;3.75;;;12.50;99.90;;;;;;5057429;28;20266;-73
2022/10/07 08:51:11;;;;;;;6.18;3.92;;;12.60;99.90;;;;;;5041362;28;20235;-72
2022/10/07 08:53:43;;;;;;;5.13;3.42;;;12.70;99.90;;;;;;5042445;28;20284;-74
2022/10/07 08:56:11;;;;;;;7.88;3.97;;;12.90;99.90;;;;;;5042249;28;20240;-72
2022/10/07 08:59:03;;;;;;;5.45;3.40;;;13.00;99.90;;;;;;5057543;28;20225;-73
2022/10/07 09:01:34;;;;;;;5.55;3.42;;;13.10;99.90;;;;;;5038138;28;20217;-72
2022/10/07 09:04:24;;;;;;;5.22;3.40;;;13.30;99.90;;;;;;5045129;28;20192;-72
2022/10/07 09:07:03;;;;;;;6.55;3.35;;;13.40;99.90;;;;;;5041962;28;20193;-71
2022/10/07 09:09:43;;;;;;;3.97;2.88;;;13.60;99.90;;;;;;5056789;28;20165;-72
2022/10/07 09:12:23;;;;;;;5.80;3.17;;;13.70;99.90;;;;;;5054032;28;20288;-72
2022/10/07 09:14:53;;;;;;;4.75;3.25;;;13.80;99.90;;;;;;5050893;28;20247;-71
2022/10/07 09:17:36;;;;;;;4.07;3.08;;;14.00;99.90;;;;;;5069758;28;20193;-72
2022/10/07 09:20:15;;;;;;;4.45;2.80;;;14.40;99.90;;;;;;5036615;28;20197;-71
2022/10/07 09:22:52;;;;;;;5.00;2.65;;;15.10;99.90;;;;;;5056608;28;20177;-72
2022/10/07 09:25:22;;;;;;;5.30;3.20;;;15.90;99.90;;;;;;5059145;28;20188;-71
2022/10/07 09:27:51;;;;;;;4.55;2.80;;;16.70;99.90;;;;;;5063325;28;20303;-74
2022/10/07 09:30:18;;;;;;;5.18;2.67;;;17.40;99.90;;;;;;5073820;28;20193;-71
2022/10/07 09:32:49;;;;;;;5.20;2.72;;;18.10;99.90;;;;;;5047274;28;20178;-74
2022/10/07 09:35:17;;;;;;;6.10;2.70;;;18.70;99.90;;;;;;5060398;28;20189;-72
2022/10/07 09:38:08;;;;;;;4.88;2.67;;;19.30;99.90;;;;;;5070604;28;20204;-73
2022/10/07 09:43:33;;;;;;;4.53;2.22;;;20.50;99.90;;;;;;5038224;28;20158;-73
2022/10/07 09:46:00;;;;;;;3.97;2.30;;;21.00;99.90;;;;;;5050419;28;20208;-74
2022/10/07 09:48:33;;;;;;;5.18;2.40;;;21.40;99.90;;;;;;5062592;28;20188;-74
2022/10/07 09:51:16;;;;;;;5.25;2.10;;;21.80;99.90;;;;;;5037413;28;20174;-73
2022/10/07 09:54:02;;;;;;;4.07;2.50;;;22.20;99.90;;;;;;5037543;28;20204;-72
2022/10/07 09:56:43;;;;;;;3.95;2.28;;;22.60;99.90;;;;;;5043756;28;20182;-74
2022/10/07 09:59:23;;;;;;;5.20;2.20;;;22.90;99.90;;;;;;5041852;28;20197;-73
2022/10/07 10:01:56;;;;;;;4.45;2.17;;;23.10;99.90;;;;;;5076513;28;20542;-72
2022/10/07 10:04:34;;;;;;;4.35;2.30;;;23.20;99.90;;;;;;5046942;28;20174;-72
2022/10/07 10:07:19;;;;;;;4.25;2.33;;;23.30;99.90;;;;;;5036319;28;20228;-73
2022/10/07 10:09:57;;;;;;;5.03;2.33;;;23.40;99.90;;;;;;5051955;28;20189;-74
2022/10/07 10:12:27;;;;;;;4.32;2.35;;;23.40;99.90;;;;;;5053295;28;20183;-73
2022/10/07 10:15:22;;;;;;;6.75;2.45;;;23.40;99.90;;;;;;5051721;28;20209;-73
2022/10/07 10:17:49;;;;;;;5.30;2.20;;;23.50;99.90;;;;;;5052819;28;20190;-74
2022/10/07 10:20:35;;;;;;;4.28;2.42;;;23.50;99.90;;;;;;5038763;28;20217;-72
2022/10/07 10:23:22;;;;;;;4.50;2.03;;;23.60;99.90;;;;;;5042793;28;20172;-75
2022/10/07 10:26:26;;;;;;;4.68;2.30;;;23.60;99.90;;;;;;5036485;28;20184;-74
2022/10/07 10:29:20;;;;;;;5.40;2.13;;;23.70;99.90;;;;;;5037691;28;20190;-74
2022/10/07 10:32:07;;;;;;;5.40;2.20;;;23.80;99.90;;;;;;5035761;28;20162;-74
2022/10/07 10:35:11;;;;;;;3.70;1.85;;;23.90;99.90;;;;;;5042001;28;20212;-74
2022/10/07 10:37:40;;;;;;;3.63;1.85;;;23.90;99.90;;;;;;5066807;28;20196;-70
2022/10/07 10:40:38;;;;;;;4.88;2.15;;;23.90;99.90;;;;;;5051532;28;20205;-73
2022/10/07 10:43:25;;;;;;;3.78;1.88;;;24.00;99.90;;;;;;5051787;28;20174;-73
2022/10/07 10:46:06;;;;;;;4.82;1.90;;;24.00;99.90;;;;;;5056871;28;20236;-74
2022/10/07 10:48:54;;;;;;;3.47;1.20;;;24.00;99.90;;;;;;5071472;28;20272;-73
2022/10/07 10:51:41;;;;;;;4.63;1.45;;;24.10;99.90;;;;;;5051373;28;20181;-74
2022/10/07 10:54:15;;;;;;;5.03;1.70;;;24.10;99.90;;;;;;5055934;28;20257;-71
2022/10/07 10:57:11;;;;;;;6.35;1.70;;;24.10;99.90;;;;;;5065620;28;20191;-72
2022/10/07 10:59:46;;;;;;;2.88;1.30;;;24.10;99.90;;;;;;5034582;28;20203;-72
2022/10/07 11:02:40;;;;;;;3.25;1.50;;;24.10;99.90;;;;;;5050116;28;20223;-71
2022/10/07 11:05:21;;;;;;;2.65;1.38;;;24.00;99.90;;;;;;5058076;28;20202;-73
2022/10/07 11:07:50;;;;;;;5.53;1.58;;;24.00;99.90;;;;;;5045109;28;20158;-73
2022/10/07 11:10:26;;;;;;;4.22;1.25;;;23.90;99.90;;;;;;5053209;28;20216;-73
2022/10/07 11:13:14;;;;;;;4.10;1.40;;;23.90;99.90;;;;;;5061226;28;20176;-71
2022/10/07 11:15:46;;;;;;;2.75;1.27;;;23.70;99.90;;;;;;5050151;28;20212;-73
2022/10/07 11:18:26;;;;;;;3.08;1.35;;;23.60;99.90;;;;;;5043409;28;20198;-72
2022/10/07 11:20:53;;;;;;;3.78;1.50;;;23.60;99.90;;;;;;5058101;28;20172;-74
2022/10/07 11:23:21;;;;;;;4.03;1.42;;;23.60;99.90;;;;;;5075921;28;20168;-71
2022/10/07 11:26:00;;;;;;;4.07;1.67;;;23.40;99.90;;;;;;5059260;28;20174;-73
2022/10/07 11:28:30;;;;;;;2.78;1.08;;;23.30;99.90;;;;;;5058269;28;20220;-69
2022/10/07 11:31:06;;;;;;;4.15;1.50;;;23.20;99.90;;;;;;5066869;28;20178;-71
2022/10/07 11:34:05;;;;;;;4.65;1.50;;;23.20;99.90;;;;;;5057322;28;20200;-72
2022/10/07 11:36:54;;;;;;;5.07;1.30;;;23.20;99.90;;;;;;5070918;28;20195;-72
2022/10/07 11:39:21;;;;;;;3.72;1.25;;;23.10;99.90;;;;;;5047315;28;20277;-72
2022/10/07 11:41:57;;;;;;;3.10;2.00;;;23.20;99.90;;;;;;5061047;28;20188;-76
2022/10/07 11:44:34;;;;;;;3.13;1.42;;;23.30;99.90;;;;;;5072468;28;20197;-72
2022/10/07 11:47:04;;;;;;;5.30;1.40;;;23.30;99.90;;;;;;5051888;28;20195;-72
2022/10/07 11:50:09;;;;;;;3.30;1.27;;;23.40;99.90;;;;;;5050463;28;20178;-73
2022/10/07 11:52:40;;;;;;;4.65;1.30;;;23.50;99.90;;;;;;5051397;28;20197;-73
2022/10/07 11:55:14;;;;;;;2.72;1.38;;;23.60;99.90;;;;;;5049544;28;20238;-73
2022/10/07 11:57:53;;;;;;;3.90;1.50;;;23.60;99.90;;;;;;5036783;28;20189;-72
2022/10/07 12:00:34;;;;;;;3.75;1.10;;;23.70;99.90;;;;;;5045680;28;20242;-72
2022/10/07 12:03:37;;;;;;;2.15;1.10;;;23.80;99.90;;;;;;5051537;28;20212;-73
2022/10/07 12:06:10;;;;;;;3.10;1.10;;;23.90;99.90;;;;;;5054014;28;20177;-73
2022/10/07 12:08:40;;;;;;;3.97;1.20;;;24.10;99.90;;;;;;5040175;28;20205;-72
2022/10/07 12:11:13;;;;;;;5.43;1.55;;;24.20;99.90;;;;;;5051157;28;20272;-73
2022/10/07 12:13:44;;;;;;;5.20;1.45;;;24.30;99.90;;;;;;5053952;28;20201;-72
2022/10/07 12:16:30;;;;;;;4.07;1.10;;;24.30;99.90;;;;;;5045477;28;20182;-74
2022/10/07 12:19:05;;;;;;;3.42;1.25;;;24.50;99.90;;;;;;5046110;28;20474;-73
2022/10/07 12:21:59;;;;;;;3.65;1.40;;;24.60;99.90;;;;;;5035817;28;20154;-71
2022/10/07 12:24:28;;;;;;;3.28;1.23;;;24.70;99.90;;;;;;5068861;28;20178;-74
2022/10/07 12:26:56;;;;;;;3.13;1.20;;;24.70;99.90;;;;;;5042718;28;20197;-72
2022/10/07 12:29:32;;;;;;;3.42;1.20;;;24.70;99.90;;;;;;5036983;28;20178;-73
2022/10/07 12:31:58;;;;;;;2.65;1.10;;;24.80;99.90;;;;;;5060745;28;20204;-73
2022/10/07 12:34:36;;;;;;;1.95;1.10;;;24.70;99.90;;;;;;5074944;28;20172;-72
2022/10/07 12:37:34;;;;;;;4.40;1.30;;;24.80;99.90;;;;;;5048388;28;20203;-70
2022/10/07 12:40:13;;;;;;;3.63;1.00;;;24.70;99.90;;;;;;5039622;28;20178;-72
2022/10/07 12:42:46;;;;;;;5.05;1.38;;;24.70;99.90;;;;;;5059602;28;20283;-73
2022/10/07 12:45:15;;;;;;;3.85;1.30;;;24.70;99.90;;;;;;5062254;28;20199;-73
2022/10/07 12:47:42;;;;;;;2.92;1.00;;;24.70;99.90;;;;;;5059692;28;20173;-70
2022/10/07 12:50:13;;;;;;;2.75;0.88;;;24.60;99.90;;;;;;5069677;28;20187;-73
2022/10/07 12:52:50;;;;;;;4.50;1.20;;;24.60;99.90;;;;;;5090359;28;20198;-71
2022/10/07 12:55:22;;;;;;;5.18;1.20;;;24.50;98.60;;;;;;5060422;28;20307;-73
2022/10/07 12:59:45;;;;;;;3.38;1.05;;;24.50;99.90;;;;;;5058329;28;20236;-73
2022/10/07 13:00:55;;;;;;;3.65;1.20;;;24.50;99.20;;;;;;5061605;28;20200;-73
2022/10/07 13:03:58;;;;;;;3.53;1.02;;;24.40;99.10;;;;;;5047724;28;20269;-70
2022/10/07 13:07:03;;;;;;;2.42;1.10;;;24.40;99.00;;;;;;5039080;28;20274;-72
2022/10/07 13:09:56;;;;;;;4.05;1.17;;;24.40;98.60;;;;;;5055360;28;20264;-72
2022/10/07 13:12:32;;;;;;;3.85;1.30;;;24.50;99.30;;;;;;5067844;28;20208;-73
2022/10/07 13:15:15;;;;;;;2.17;0.90;;;24.60;99.70;;;;;;5060716;28;20283;-73
2022/10/07 13:17:50;;;;;;;4.03;1.33;;;24.70;99.90;;;;;;5079487;28;20223;-73
2022/10/07 13:20:26;;;;;;;3.30;1.15;;;24.70;99.90;;;;;;5053042;28;20185;-74
2022/10/07 13:22:57;;;;;;;3.13;1.10;;;24.70;99.00;;;;;;5054090;28;20177;-75
2022/10/07 13:25:22;;;;;;;3.10;1.20;;;24.70;99.30;;;;;;5051905;28;20200;-74
2022/10/07 13:27:58;;;;;;;3.50;1.20;;;24.60;99.20;;;;;;5055383;28;20202;-73
2022/10/07 13:30:44;;;;;;;4.18;1.48;;;24.50;98.40;;;;;;5039525;28;20182;-74
2022/10/07 13:33:25;;;;;;;3.60;1.20;;;24.50;98.60;;;;;;5037888;28;20182;-75
2022/10/07 13:36:13;;;;;;;3.80;1.20;;;24.40;98.10;;;;;;5039584;28;20203;-73
2022/10/07 13:38:42;;;;;;;2.85;1.10;;;24.40;97.40;;;;;;5062071;28;20232;-73